createdAt,value
2023-05-27T00:01:32.608Z,9.50
2023-05-27T00:04:35.938Z,9.20
2023-05-27T00:07:38.813Z,10.38
2023-05-27T00:10:41.970Z,10.15
2023-05-27T00:13:45.068Z,10.13
2023-05-27T00:16:48.237Z,9.57
2023-05-27T00:19:52.922Z,9.75
2023-05-27T00:22:57.823Z,9.65
2023-05-27T00:26:00.580Z,10.25
2023-05-27T00:29:03.646Z,9.70
2023-05-27T00:32:06.712Z,10.85
2023-05-27T00:35:10.668Z,10.15
2023-05-27T00:38:13.524Z,10.02
2023-05-27T00:41:16.719Z,9.73
2023-05-27T00:44:19.797Z,10.27
2023-05-27T00:47:23.511Z,9.93
2023-05-27T00:50:27.521Z,9.90
2023-05-27T00:53:38.804Z,9.90
2023-05-27T00:56:42.583Z,10.18
2023-05-27T00:59:46.697Z,9.73
2023-05-27T01:02:50.380Z,10.02
2023-05-27T01:06:01.758Z,10.43
2023-05-27T01:09:28.996Z,9.93
2023-05-27T01:13:01.500Z,10.00
2023-05-27T01:16:14.832Z,10.17
2023-05-27T01:19:48.817Z,9.73
2023-05-27T01:22:53.798Z,9.95
2023-05-27T01:25:56.945Z,9.95
2023-05-27T01:29:00.068Z,9.75
2023-05-27T01:32:07.453Z,9.80
2023-05-27T01:35:19.354Z,9.93
2023-05-27T01:38:26.323Z,10.15
2023-05-27T01:41:29.797Z,9.48
2023-05-27T01:44:34.373Z,9.68
2023-05-27T01:47:38.536Z,10.67
2023-05-27T01:50:41.613Z,10.07
2023-05-27T01:53:44.775Z,10.38
2023-05-27T01:56:47.898Z,10.73
2023-05-27T01:59:50.702Z,10.50
2023-05-27T02:02:54.182Z,9.80
2023-05-27T02:05:57.655Z,10.25
2023-05-27T02:09:00.581Z,10.98
2023-05-27T02:12:04.134Z,10.48
2023-05-27T02:15:08.788Z,10.10
2023-05-27T02:18:14.274Z,10.67
2023-05-27T02:21:17.679Z,10.80
2023-05-27T02:24:20.773Z,9.27
2023-05-27T02:27:25.134Z,9.60
2023-05-27T02:30:28.459Z,10.40
2023-05-27T02:33:32.261Z,10.03
2023-05-27T02:36:36.103Z,9.65
2023-05-27T02:39:40.161Z,11.18
2023-05-27T02:42:43.404Z,11.90
2023-05-27T02:45:47.168Z,11.20
2023-05-27T02:48:50.534Z,11.10
2023-05-27T02:51:54.229Z,10.32
2023-05-27T02:54:57.829Z,11.10
2023-05-27T02:58:00.781Z,10.20
2023-05-27T03:01:04.059Z,10.73
2023-05-27T03:04:07.023Z,10.50
2023-05-27T03:07:11.032Z,10.82
2023-05-27T03:10:13.802Z,11.02
2023-05-27T03:13:16.902Z,10.90
2023-05-27T03:16:20.994Z,11.12
2023-05-27T03:19:24.240Z,11.00
2023-05-27T03:22:27.071Z,10.82
2023-05-27T03:25:30.326Z,9.68
2023-05-27T03:28:34.407Z,10.85
2023-05-27T03:31:37.937Z,10.80
2023-05-27T03:34:40.965Z,10.23
2023-05-27T03:37:44.762Z,9.80
2023-05-27T03:40:47.528Z,9.75
2023-05-27T03:43:50.897Z,9.48
2023-05-27T03:46:54.182Z,9.63
2023-05-27T03:49:57.356Z,9.03
2023-05-27T03:53:00.023Z,9.32
2023-05-27T03:56:04.056Z,9.23
2023-05-27T03:59:10.002Z,9.68
2023-05-27T04:02:13.678Z,9.32
2023-05-27T04:05:18.151Z,9.27
2023-05-27T04:08:23.659Z,9.50
2023-05-27T04:11:28.787Z,9.30
2023-05-27T04:14:32.216Z,10.40
2023-05-27T04:17:36.772Z,11.15
2023-05-27T04:20:41.778Z,9.57
2023-05-27T04:23:45.587Z,9.10
2023-05-27T04:26:49.035Z,9.05
2023-05-27T04:29:52.450Z,9.18
2023-05-27T04:32:56.011Z,8.82
2023-05-27T04:35:59.168Z,9.63
2023-05-27T04:39:03.542Z,9.85
2023-05-27T04:42:07.188Z,9.43
2023-05-27T04:45:15.628Z,9.40
2023-05-27T04:48:21.225Z,8.75
2023-05-27T04:51:24.213Z,9.20
2023-05-27T04:54:28.234Z,8.93
2023-05-27T04:57:31.238Z,9.02
2023-05-27T05:00:50.890Z,8.93
2023-05-27T05:04:04.916Z,8.60
2023-05-27T05:07:08.746Z,8.47
2023-05-27T05:10:12.759Z,8.32
2023-05-27T05:13:17.444Z,8.50
2023-05-27T05:16:20.240Z,8.10
2023-05-27T05:19:23.388Z,7.78
2023-05-27T05:22:27.483Z,7.80
2023-05-27T05:25:31.693Z,8.30
2023-05-27T05:28:35.674Z,7.93
2023-05-27T05:31:39.128Z,7.55
2023-05-27T05:34:43.337Z,7.65
2023-05-27T05:37:47.140Z,7.77
2023-05-27T05:40:53.663Z,6.90
2023-05-27T05:43:58.383Z,8.00
2023-05-27T05:47:01.663Z,7.90
2023-05-27T05:50:05.222Z,7.60
2023-05-27T05:53:08.679Z,7.40
2023-05-27T05:56:12.002Z,7.18
2023-05-27T05:59:14.911Z,7.20
2023-05-27T06:02:18.184Z,6.85
2023-05-27T06:05:23.457Z,6.82
2023-05-27T06:08:26.398Z,6.60
2023-05-27T06:11:31.734Z,7.50
2023-05-27T06:14:35.001Z,6.70
2023-05-27T06:17:38.449Z,6.80
2023-05-27T06:20:41.517Z,6.47
2023-05-27T06:23:44.986Z,6.43
2023-05-27T06:26:51.039Z,7.25
2023-05-27T06:29:54.182Z,6.12
2023-05-27T06:32:57.734Z,6.40
2023-05-27T06:36:01.457Z,7.70
2023-05-27T06:39:05.154Z,10.63
2023-05-27T06:42:09.323Z,7.12
2023-05-27T06:45:13.604Z,7.03
2023-05-27T06:48:17.210Z,6.75
2023-05-27T06:51:20.034Z,6.85
2023-05-27T06:54:23.522Z,6.47
2023-05-27T06:57:27.090Z,6.20
2023-05-27T07:00:31.277Z,6.72
2023-05-27T07:03:35.627Z,6.68
2023-05-27T07:06:39.451Z,6.28
2023-05-27T07:09:42.561Z,6.13
2023-05-27T07:12:46.020Z,6.10
2023-05-27T07:15:52.481Z,6.30
2023-05-27T07:18:55.737Z,6.12
2023-05-27T07:21:58.771Z,6.37
2023-05-27T07:25:02.534Z,6.53
2023-05-27T07:28:05.949Z,6.15
2023-05-27T07:31:10.150Z,6.22
2023-05-27T07:34:13.555Z,6.40
2023-05-27T07:37:16.728Z,6.60
2023-05-27T07:40:19.530Z,5.80
2023-05-27T07:43:22.820Z,6.22
2023-05-27T07:46:32.075Z,6.25
2023-05-27T07:49:35.307Z,6.50
2023-05-27T07:52:38.564Z,6.47
2023-05-27T07:55:46.130Z,5.73
2023-05-27T07:58:49.324Z,6.28
2023-05-27T08:01:52.890Z,6.35
2023-05-27T08:04:56.883Z,5.90
2023-05-27T08:08:00.410Z,5.78
2023-05-27T08:11:04.454Z,5.87
2023-05-27T08:14:14.258Z,6.50
2023-05-27T08:17:18.007Z,5.57
2023-05-27T08:20:21.530Z,6.05
2023-05-27T08:23:26.538Z,6.80
2023-05-27T08:26:29.775Z,5.57
2023-05-27T08:29:34.883Z,6.07
2023-05-27T08:32:37.793Z,5.82
2023-05-27T08:35:40.976Z,6.20
2023-05-27T08:38:44.031Z,6.20
2023-05-27T08:41:47.657Z,5.87
2023-05-27T08:44:51.523Z,4.70
2023-05-27T08:47:55.224Z,4.57
2023-05-27T08:50:59.859Z,4.72
2023-05-27T08:54:03.214Z,5.50
2023-05-27T08:57:08.901Z,4.93
2023-05-27T09:00:13.400Z,5.00
2023-05-27T09:03:17.927Z,4.90
2023-05-27T09:06:21.879Z,4.47
2023-05-27T09:09:24.648Z,5.30
2023-05-27T09:12:28.238Z,4.97
2023-05-27T09:15:33.379Z,5.07
2023-05-27T09:18:37.373Z,5.50
2023-05-27T09:21:40.201Z,4.93
2023-05-27T09:24:43.658Z,5.47
2023-05-27T09:27:46.864Z,5.73
2023-05-27T09:31:10.026Z,5.68
2023-05-27T09:34:16.626Z,5.22
2023-05-27T09:37:22.208Z,5.97
2023-05-27T09:40:27.015Z,5.53
2023-05-27T09:43:31.166Z,5.77
2023-05-27T09:46:34.868Z,5.95
2023-05-27T09:49:39.408Z,5.62
2023-05-27T09:52:44.484Z,5.60
2023-05-27T09:55:54.838Z,5.55
2023-05-27T09:58:59.253Z,5.27
2023-05-27T10:02:05.543Z,5.75
2023-05-27T10:05:09.801Z,5.85
2023-05-27T10:08:25.196Z,5.35
2023-05-27T10:11:33.498Z,5.78
2023-05-27T10:14:36.762Z,5.90
2023-05-27T10:17:49.698Z,5.80
2023-05-27T10:20:53.068Z,5.50
2023-05-27T10:24:03.157Z,5.35
2023-05-27T10:27:07.239Z,5.47
2023-05-27T10:30:10.532Z,5.97
2023-05-27T10:33:14.377Z,5.60
2023-05-27T10:36:23.043Z,5.85
2023-05-27T10:39:27.517Z,5.70
2023-05-27T10:42:32.152Z,5.40
2023-05-27T10:45:35.657Z,5.20
2023-05-27T10:48:41.170Z,5.70
2023-05-27T10:51:45.446Z,5.87
2023-05-27T10:54:49.813Z,5.15
2023-05-27T10:57:52.948Z,5.50
2023-05-27T11:00:59.958Z,5.43
2023-05-27T11:04:02.761Z,5.57
2023-05-27T11:07:06.121Z,5.82
2023-05-27T11:10:10.167Z,5.57
2023-05-27T11:13:13.354Z,5.57
2023-05-27T11:16:17.446Z,6.20
2023-05-27T11:19:22.318Z,5.53
2023-05-27T11:22:25.098Z,5.55
2023-05-27T11:25:28.350Z,6.05
2023-05-27T11:28:31.493Z,5.90
2023-05-27T11:31:34.653Z,5.13
2023-05-27T11:34:38.136Z,5.82
2023-05-27T11:37:41.396Z,5.45
2023-05-27T11:40:44.090Z,5.40
2023-05-27T11:43:51.733Z,5.62
2023-05-27T11:47:03.503Z,4.97
2023-05-27T11:50:07.690Z,5.03
2023-05-27T11:53:10.437Z,5.30
2023-05-27T11:56:14.524Z,5.00
2023-05-27T11:59:17.583Z,5.60
2023-05-27T12:02:22.865Z,5.17
2023-05-27T12:08:35.986Z,5.00
2023-05-27T12:11:39.870Z,5.35
2023-05-27T12:14:42.900Z,5.03
2023-05-27T12:17:46.128Z,4.70
2023-05-27T12:20:49.015Z,5.93
2023-05-27T12:23:52.539Z,6.00
2023-05-27T12:26:55.794Z,5.72
2023-05-27T12:29:58.845Z,5.37
2023-05-27T12:33:02.616Z,13.53
2023-05-27T12:36:08.912Z,33.30
2023-05-27T12:39:11.885Z,4.87
2023-05-27T12:42:16.749Z,5.05
2023-05-27T12:45:23.294Z,4.75
2023-05-27T12:48:26.589Z,5.43
2023-05-27T12:51:29.787Z,4.50
2023-05-27T12:54:33.140Z,5.55
2023-05-27T12:57:35.959Z,5.00
2023-05-27T13:00:39.266Z,5.40
2023-05-27T13:03:42.492Z,5.13
2023-05-27T13:06:45.667Z,5.05
2023-05-27T13:09:49.449Z,4.62
2023-05-27T13:12:53.339Z,5.22
2023-05-27T13:15:56.163Z,4.97
2023-05-27T13:18:59.275Z,4.60
2023-05-27T13:22:02.758Z,4.90
2023-05-27T13:25:06.991Z,4.57
2023-05-27T13:28:09.847Z,4.87
2023-05-27T13:31:12.921Z,4.60
2023-05-27T13:34:19.021Z,4.27
2023-05-27T13:37:22.314Z,4.80
2023-05-27T13:40:25.095Z,4.60
2023-05-27T13:43:28.545Z,4.80
2023-05-27T13:46:31.382Z,5.03
2023-05-27T13:49:34.695Z,4.70
2023-05-27T13:52:37.791Z,4.70
2023-05-27T13:55:40.905Z,4.47
2023-05-27T13:58:43.692Z,4.35
2023-05-27T14:01:47.028Z,4.15
2023-05-27T14:04:50.443Z,4.60
2023-05-27T14:07:53.561Z,5.28
2023-05-27T14:10:56.625Z,4.30
2023-05-27T14:14:00.426Z,3.80
2023-05-27T14:17:03.668Z,4.00
2023-05-27T14:20:12.296Z,4.00
2023-05-27T14:23:17.653Z,3.80
2023-05-27T14:26:20.425Z,4.37
2023-05-27T14:29:23.536Z,3.40
2023-05-27T14:32:26.309Z,4.20
2023-05-27T14:35:29.891Z,4.30
2023-05-27T14:38:32.689Z,3.75
2023-05-27T14:41:36.088Z,4.05
2023-05-27T14:44:39.645Z,3.90
2023-05-27T14:47:42.733Z,3.72
2023-05-27T14:50:46.318Z,3.87
2023-05-27T14:53:49.620Z,3.90
2023-05-27T14:56:52.621Z,4.03
2023-05-27T14:59:55.718Z,3.45
2023-05-27T15:02:58.524Z,4.28
2023-05-27T15:06:01.841Z,3.57
2023-05-27T15:09:04.698Z,4.18
2023-05-27T15:12:08.100Z,4.62
2023-05-27T15:15:16.234Z,4.20
2023-05-27T15:18:19.358Z,3.67
2023-05-27T15:21:22.676Z,3.60
2023-05-27T15:24:25.766Z,3.75
2023-05-27T15:27:28.540Z,4.07
2023-05-27T15:30:32.783Z,3.40
2023-05-27T15:33:35.662Z,3.87
2023-05-27T15:36:39.090Z,3.43
2023-05-27T15:39:41.985Z,3.05
2023-05-27T15:42:45.422Z,3.50
2023-05-27T15:46:02.880Z,3.78
2023-05-27T15:49:06.966Z,3.12
2023-05-27T15:52:12.219Z,2.60
2023-05-27T15:55:15.556Z,3.15
2023-05-27T15:58:18.482Z,3.33
2023-05-27T16:01:21.705Z,3.83
2023-05-27T16:04:24.910Z,3.95
2023-05-27T16:07:27.727Z,6.47
2023-05-27T16:10:31.168Z,3.60
2023-05-27T16:13:33.985Z,5.53
2023-05-27T16:16:37.318Z,4.00
2023-05-27T16:19:40.085Z,3.55
2023-05-27T16:22:43.333Z,3.37
2023-05-27T16:25:47.432Z,3.45
2023-05-27T16:28:50.888Z,3.25
2023-05-27T16:31:53.862Z,3.45
2023-05-27T16:34:57.157Z,3.55
2023-05-27T16:37:59.883Z,4.33
2023-05-27T16:41:03.052Z,3.60
2023-05-27T16:44:06.737Z,8.57
2023-05-27T16:47:10.331Z,3.20
2023-05-27T16:50:13.149Z,4.28
2023-05-27T16:53:16.480Z,3.50
2023-05-27T16:56:19.398Z,3.42
2023-05-27T16:59:22.531Z,3.70
2023-05-27T17:02:25.664Z,3.40
2023-05-27T17:05:28.953Z,3.10
2023-05-27T17:08:31.889Z,3.10
2023-05-27T17:11:36.685Z,3.10
2023-05-27T17:14:43.579Z,3.30
2023-05-27T17:17:49.614Z,3.00
2023-05-27T17:20:55.096Z,3.10
2023-05-27T17:23:59.467Z,3.67
2023-05-27T17:27:02.301Z,3.90
2023-05-27T17:30:06.020Z,4.12
2023-05-27T17:33:08.850Z,4.32
2023-05-27T17:36:12.300Z,3.60
2023-05-27T17:39:15.092Z,4.17
2023-05-27T17:42:18.253Z,4.30
2023-05-27T17:45:20.913Z,4.18
2023-05-27T17:48:24.113Z,3.78
2023-05-27T17:51:28.125Z,3.80
2023-05-27T17:54:31.636Z,4.07
2023-05-27T17:57:34.421Z,4.10
2023-05-27T18:00:38.127Z,3.97
2023-05-27T18:07:01.646Z,4.15
2023-05-27T18:10:05.924Z,4.20
2023-05-27T18:13:08.715Z,3.75
2023-05-27T18:16:12.951Z,4.12
2023-05-27T18:19:16.489Z,3.78
2023-05-27T18:22:20.240Z,4.07
2023-05-27T18:25:23.524Z,3.70
2023-05-27T18:28:26.527Z,3.78
2023-05-27T18:31:29.228Z,3.92
2023-05-27T18:34:32.351Z,3.40
2023-05-27T18:37:35.631Z,3.90
2023-05-27T18:40:40.541Z,3.63
2023-05-27T18:43:43.305Z,3.90
2023-05-27T18:46:46.433Z,4.22
2023-05-27T18:49:49.449Z,4.10
2023-05-27T18:52:52.664Z,4.28
2023-05-27T18:55:55.461Z,3.93
2023-05-27T18:58:59.063Z,4.05
2023-05-27T19:02:02.305Z,4.10
2023-05-27T19:05:05.885Z,4.30
2023-05-27T19:08:08.767Z,4.65
2023-05-27T19:11:12.811Z,5.07
2023-05-27T19:14:16.152Z,4.70
2023-05-27T19:17:19.134Z,4.47
2023-05-27T19:20:22.585Z,4.40
2023-05-27T19:23:25.859Z,4.25
2023-05-27T19:26:28.702Z,3.90
2023-05-27T19:29:31.764Z,4.57
2023-05-27T19:32:34.528Z,4.53
2023-05-27T19:35:37.961Z,4.75
2023-05-27T19:38:41.113Z,4.97
2023-05-27T19:41:44.177Z,5.27
2023-05-27T19:44:48.226Z,4.87
2023-05-27T19:47:52.471Z,5.40
2023-05-27T19:50:55.690Z,4.75
2023-05-27T19:53:58.938Z,5.10
2023-05-27T19:57:02.644Z,4.70
2023-05-27T20:00:08.815Z,4.97
2023-05-27T20:03:11.861Z,5.00
2023-05-27T20:06:15.210Z,5.32
2023-05-27T20:09:18.325Z,5.78
2023-05-27T20:12:56.563Z,4.83
2023-05-27T20:15:59.665Z,4.50
2023-05-27T20:19:02.497Z,5.22
2023-05-27T20:22:05.473Z,5.68
2023-05-27T20:25:08.821Z,4.62
2023-05-27T20:28:13.494Z,5.40
2023-05-27T20:31:16.616Z,4.78
2023-05-27T20:34:19.714Z,5.68
2023-05-27T20:37:22.517Z,5.18
2023-05-27T20:40:26.637Z,5.62
2023-05-27T20:43:31.973Z,4.37
2023-05-27T20:46:35.208Z,4.97
2023-05-27T20:49:37.953Z,5.50
2023-05-27T20:52:41.524Z,5.03
2023-05-27T20:55:44.533Z,5.47
2023-05-27T20:58:47.492Z,5.17
2023-05-27T21:01:50.802Z,5.10
2023-05-27T21:04:53.992Z,5.10
2023-05-27T21:07:57.045Z,5.50
2023-05-27T21:11:00.145Z,4.90
2023-05-27T21:14:03.302Z,5.30
2023-05-27T21:17:06.565Z,5.50
2023-05-27T21:20:09.880Z,5.22
2023-05-27T21:23:13.184Z,5.22
2023-05-27T21:26:16.684Z,5.37
2023-05-27T21:29:19.753Z,5.33
2023-05-27T21:32:24.590Z,5.45
2023-05-27T21:35:27.681Z,4.87
2023-05-27T21:38:34.573Z,5.03
2023-05-27T21:41:38.067Z,5.22
2023-05-27T21:44:41.262Z,5.57
2023-05-27T21:47:44.484Z,5.70
2023-05-27T21:50:47.404Z,5.53
2023-05-27T21:56:54.523Z,4.82
2023-05-27T21:59:58.560Z,4.53
2023-05-27T22:03:02.160Z,4.57
2023-05-27T22:06:06.240Z,4.55
2023-05-27T22:09:09.835Z,5.00
2023-05-27T22:12:14.474Z,5.32
2023-05-27T22:15:18.100Z,5.00
2023-05-27T22:18:21.173Z,4.80
2023-05-27T22:21:29.362Z,4.25
2023-05-27T22:24:34.372Z,4.60
2023-05-27T22:27:38.000Z,4.82
2023-05-27T22:30:41.468Z,5.10
2023-05-27T22:33:44.394Z,4.80
2023-05-27T22:36:48.007Z,5.50
2023-05-27T22:39:51.813Z,5.00
2023-05-27T22:42:55.764Z,4.75
2023-05-27T22:45:59.510Z,5.00
2023-05-27T22:49:03.161Z,4.90
2023-05-27T22:52:06.020Z,4.82
2023-05-27T22:55:09.615Z,4.95
2023-05-27T22:58:12.261Z,4.60
2023-05-27T23:01:15.570Z,5.03
2023-05-27T23:04:18.432Z,5.45
2023-05-27T23:07:21.521Z,5.85
2023-05-27T23:10:27.736Z,4.97
2023-05-27T23:13:30.884Z,4.93
2023-05-27T23:16:33.749Z,4.73
2023-05-27T23:19:36.869Z,5.50
2023-05-27T23:22:39.685Z,5.15
2023-05-27T23:25:42.872Z,5.70
2023-05-27T23:28:45.835Z,5.35
2023-05-27T23:31:49.160Z,5.53
2023-05-27T23:34:52.131Z,5.72
2023-05-27T23:37:55.307Z,6.00
2023-05-27T23:40:58.090Z,5.57
2023-05-27T23:44:01.269Z,5.40
2023-05-27T23:47:04.232Z,5.13
2023-05-27T23:50:09.126Z,5.30
2023-05-27T23:53:11.898Z,6.05
2023-05-27T23:56:15.256Z,5.70
2023-05-27T23:59:17.969Z,5.97
